CFG3MC LPMA-EDDF
Flight info
| Callsign | CFG3MC |
|---|---|
| Flight time | 3h 50m |
| Altitude | 32000 |
| Route | DEGUN DCT ROLAR DCT VERAM DCT ASMAR DCT DEMOS/N0449F340 DCT LOTEE DCT AZFIC DCT ERIGA DCT MOKOR UN741 NTS DCT GONEK DCT TABOV DCT TSU DCT OQQAL DCT RANUX/N0452F350 DCT VALEK DCT LUTAX DCT DIK T856 NIVNU/N0400F230 T847 IMCOM IMCOM1A |
| Aircraft | A321/M-SDE3GHIJ1LORVWXYZ/LB1D1 |
Departure
| Time | 2026-05-06 21:54 |
|---|---|
| Airport | Cristiano Ronaldo International Airport (LPMA) |
Arrival
| Time | 2026-05-07 01:45 |
|---|---|
| Airport | Frankfurt Main Airport (EDDF) |
| Time | Latitude | Longitude | Altitude | Speed | Heading |
|---|---|---|---|---|---|
| 2026-05-06 21:18 | 32.69359 | -16.77662 | 170 ft | 0 kts | 139° |
| 2026-05-06 21:46 | 32.69364 | -16.77667 | 169 ft | 2 kts | 139° |
| 2026-05-06 21:46 | 32.69380 | -16.77683 | 169 ft | 3 kts | 139° |
| 2026-05-06 21:47 | 32.69394 | -16.77697 | 169 ft | 3 kts | 158° |
| 2026-05-06 21:47 | 32.69411 | -16.77701 | 169 ft | 3 kts | 205° |
| 2026-05-06 21:47 | 32.69422 | -16.77692 | 169 ft | 1 kts | 226° |
| 2026-05-06 21:47 | 32.69433 | -16.77678 | 169 ft | 2 kts | 226° |
| 2026-05-06 21:48 | 32.69437 | -16.77674 | 169 ft | 0 kts | 226° |
| 2026-05-06 21:49 | 32.69436 | -16.77675 | 169 ft | 1 kts | 226° |
| 2026-05-06 21:50 | 32.69415 | -16.77701 | 169 ft | 7 kts | 226° |
| 2026-05-06 21:50 | 32.69372 | -16.77754 | 169 ft | 12 kts | 226° |
| 2026-05-06 21:50 | 32.69312 | -16.77828 | 169 ft | 12 kts | 226° |
| 2026-05-06 21:50 | 32.69289 | -16.77911 | 169 ft | 10 kts | 268° |
| 2026-05-06 21:51 | 32.69287 | -16.77988 | 169 ft | 9 kts | 269° |
| 2026-05-06 21:51 | 32.69260 | -16.78064 | 168 ft | 14 kts | 224° |
| 2026-05-06 21:51 | 32.69176 | -16.78162 | 164 ft | 18 kts | 224° |
| 2026-05-06 21:51 | 32.69082 | -16.78271 | 158 ft | 20 kts | 225° |
| 2026-05-06 21:52 | 32.69002 | -16.78365 | 154 ft | 14 kts | 224° |
| 2026-05-06 21:52 | 32.68918 | -16.78406 | 153 ft | 11 kts | 194° |
| 2026-05-06 21:52 | 32.68887 | -16.78458 | 153 ft | 7 kts | 287° |
| 2026-05-06 21:52 | 32.68920 | -16.78459 | 153 ft | 6 kts | 34° |
| 2026-05-06 21:53 | 32.68943 | -16.78433 | 153 ft | 0 kts | 45° |
| 2026-05-06 21:53 | 32.68982 | -16.78386 | 153 ft | 38 kts | 45° |
| 2026-05-06 21:54 | 32.69367 | -16.77938 | 170 ft | 113 kts | 44° |
| 2026-05-06 21:54 | 32.70081 | -16.77106 | 209 ft | 170 kts | 41° |
| 2026-05-06 21:54 | 32.70919 | -16.76079 | 939 ft | 171 kts | 51° |
| 2026-05-06 21:54 | 32.71352 | -16.74789 | 1714 ft | 174 kts | 82° |
| 2026-05-06 21:55 | 32.71111 | -16.73377 | 2142 ft | 178 kts | 110° |
| 2026-05-06 21:55 | 32.70635 | -16.72033 | 2617 ft | 176 kts | 110° |
| 2026-05-06 21:55 | 32.70176 | -16.70692 | 3089 ft | 174 kts | 110° |
| 2026-05-06 21:55 | 32.69722 | -16.69343 | 3426 ft | 182 kts | 108° |
| 2026-05-06 21:56 | 32.69235 | -16.67875 | 3545 ft | 201 kts | 105° |
| 2026-05-06 21:56 | 32.68710 | -16.66281 | 3693 ft | 219 kts | 106° |
| 2026-05-06 21:56 | 32.68134 | -16.64535 | 3835 ft | 237 kts | 107° |
| 2026-05-06 21:56 | 32.67503 | -16.62627 | 3962 ft | 260 kts | 108° |
| 2026-05-06 21:57 | 32.66827 | -16.60581 | 4452 ft | 270 kts | 108° |
| 2026-05-06 21:57 | 32.66151 | -16.58485 | 5099 ft | 273 kts | 104° |
| 2026-05-06 21:57 | 32.65872 | -16.56265 | 5708 ft | 273 kts | 84° |
| 2026-05-06 21:57 | 32.66207 | -16.54060 | 6253 ft | 273 kts | 65° |
| 2026-05-06 21:58 | 32.67127 | -16.52092 | 6782 ft | 274 kts | 49° |
| 2026-05-06 21:58 | 32.68465 | -16.50480 | 7367 ft | 275 kts | 41° |
| 2026-05-06 21:58 | 32.69840 | -16.48925 | 7951 ft | 278 kts | 39° |
| 2026-05-06 21:58 | 32.71246 | -16.47328 | 8536 ft | 281 kts | 41° |
| 2026-05-06 21:59 | 32.72664 | -16.45712 | 9136 ft | 284 kts | 41° |
| 2026-05-06 21:59 | 32.74094 | -16.44079 | 9725 ft | 286 kts | 40° |
| 2026-05-06 21:59 | 32.75537 | -16.42429 | 10282 ft | 290 kts | 39° |
| 2026-05-06 21:59 | 32.77037 | -16.40719 | 10443 ft | 308 kts | 40° |
| 2026-05-06 22:00 | 32.78627 | -16.38909 | 10567 ft | 326 kts | 40° |
| 2026-05-06 22:00 | 32.80307 | -16.36993 | 10692 ft | 343 kts | 41° |
| 2026-05-06 22:00 | 32.82071 | -16.34977 | 10812 ft | 360 kts | 41° |
| 2026-05-06 22:00 | 32.83903 | -16.32883 | 11111 ft | 369 kts | 41° |
| 2026-05-06 22:01 | 32.85737 | -16.30778 | 11585 ft | 373 kts | 41° |
| 2026-05-06 22:01 | 32.87610 | -16.28621 | 12104 ft | 376 kts | 41° |
| 2026-05-06 22:01 | 32.89499 | -16.26447 | 12633 ft | 379 kts | 41° |
| 2026-05-06 22:01 | 32.91402 | -16.24260 | 13148 ft | 382 kts | 41° |
| 2026-05-06 22:02 | 32.93322 | -16.22056 | 13665 ft | 385 kts | 41° |
| 2026-05-06 22:02 | 32.95256 | -16.19837 | 14138 ft | 387 kts | 41° |
| 2026-05-06 22:02 | 32.97202 | -16.17602 | 14572 ft | 390 kts | 40° |
| 2026-05-06 22:02 | 32.99158 | -16.15354 | 15033 ft | 392 kts | 40° |
| 2026-05-06 22:03 | 33.01121 | -16.13090 | 15476 ft | 394 kts | 40° |
| 2026-05-06 22:03 | 33.03068 | -16.10843 | 15898 ft | 396 kts | 40° |
| 2026-05-06 22:03 | 33.05050 | -16.08554 | 16336 ft | 398 kts | 40° |
| 2026-05-06 22:03 | 33.07043 | -16.06253 | 16764 ft | 400 kts | 40° |
| 2026-05-06 22:04 | 33.09048 | -16.03941 | 17188 ft | 402 kts | 40° |
| 2026-05-06 22:04 | 33.11062 | -16.01615 | 17587 ft | 404 kts | 40° |
| 2026-05-06 22:04 | 33.13083 | -15.99282 | 18014 ft | 406 kts | 40° |
| 2026-05-06 22:04 | 33.15120 | -15.96931 | 18412 ft | 408 kts | 40° |
| 2026-05-06 22:05 | 33.17166 | -15.94565 | 18758 ft | 410 kts | 40° |
| 2026-05-06 22:05 | 33.19219 | -15.92184 | 19113 ft | 413 kts | 40° |
| 2026-05-06 22:05 | 33.21253 | -15.89820 | 19449 ft | 415 kts | 40° |
| 2026-05-06 22:05 | 33.23324 | -15.87412 | 19788 ft | 416 kts | 40° |
| 2026-05-06 22:06 | 33.25405 | -15.84993 | 20124 ft | 418 kts | 40° |
| 2026-05-06 22:06 | 33.27498 | -15.82565 | 20457 ft | 420 kts | 40° |
| 2026-05-06 22:06 | 33.29600 | -15.80126 | 20796 ft | 422 kts | 40° |
| 2026-05-06 22:06 | 33.31711 | -15.77674 | 21130 ft | 424 kts | 40° |
| 2026-05-06 22:07 | 33.33832 | -15.75210 | 21462 ft | 426 kts | 40° |
| 2026-05-06 22:07 | 33.35933 | -15.72767 | 21782 ft | 428 kts | 40° |
| 2026-05-06 22:07 | 33.38100 | -15.70245 | 22116 ft | 430 kts | 40° |
| 2026-05-06 22:07 | 33.40222 | -15.67790 | 22424 ft | 431 kts | 37° |
| 2026-05-06 22:08 | 33.42581 | -15.65612 | 22731 ft | 427 kts | 28° |
| 2026-05-06 22:08 | 33.45182 | -15.63934 | 23062 ft | 424 kts | 21° |
| 2026-05-06 22:08 | 33.47859 | -15.62436 | 23463 ft | 424 kts | 20° |
| 2026-05-06 22:08 | 33.50536 | -15.60932 | 23793 ft | 426 kts | 21° |
| 2026-05-06 22:09 | 33.53220 | -15.59418 | 24058 ft | 427 kts | 21° |
| 2026-05-06 22:09 | 33.55912 | -15.57897 | 24327 ft | 428 kts | 20° |
| 2026-05-06 22:09 | 33.58575 | -15.56390 | 24587 ft | 430 kts | 20° |
| 2026-05-06 22:09 | 33.61282 | -15.54853 | 24846 ft | 431 kts | 20° |
| 2026-05-06 22:10 | 33.63996 | -15.53308 | 25104 ft | 432 kts | 20° |
| 2026-05-06 22:10 | 33.66719 | -15.51757 | 25352 ft | 434 kts | 20° |
| 2026-05-06 22:10 | 33.69449 | -15.50199 | 25592 ft | 435 kts | 20° |
| 2026-05-06 22:10 | 33.72188 | -15.48636 | 25835 ft | 436 kts | 20° |
| 2026-05-06 22:11 | 33.74935 | -15.47067 | 26067 ft | 438 kts | 20° |
| 2026-05-06 22:11 | 33.77687 | -15.45498 | 26283 ft | 440 kts | 20° |
| 2026-05-06 22:11 | 33.80421 | -15.43941 | 26514 ft | 441 kts | 20° |
| 2026-05-06 22:11 | 33.83201 | -15.42358 | 26739 ft | 443 kts | 20° |
| 2026-05-06 22:12 | 33.85990 | -15.40769 | 26979 ft | 444 kts | 20° |
| 2026-05-06 22:12 | 33.88779 | -15.39175 | 27316 ft | 443 kts | 20° |
| 2026-05-06 22:12 | 33.91559 | -15.37586 | 27655 ft | 442 kts | 20° |
| 2026-05-06 22:12 | 33.94332 | -15.36000 | 27996 ft | 441 kts | 20° |
| 2026-05-06 22:13 | 33.97097 | -15.34415 | 28323 ft | 440 kts | 20° |
| 2026-05-06 22:13 | 33.99856 | -15.32832 | 28645 ft | 439 kts | 20° |
| 2026-05-06 22:13 | 34.02572 | -15.31270 | 28987 ft | 438 kts | 20° |
| 2026-05-06 22:13 | 34.05318 | -15.29691 | 29301 ft | 437 kts | 19° |
| 2026-05-06 22:14 | 34.08053 | -15.28118 | 29607 ft | 436 kts | 19° |
| 2026-05-06 22:14 | 34.10791 | -15.26540 | 29915 ft | 435 kts | 19° |
| 2026-05-06 22:14 | 34.13521 | -15.24967 | 30210 ft | 434 kts | 19° |
| 2026-05-06 22:14 | 34.16246 | -15.23398 | 30469 ft | 433 kts | 19° |
| 2026-05-06 22:15 | 34.18966 | -15.21835 | 30736 ft | 432 kts | 19° |
| 2026-05-06 22:15 | 34.21678 | -15.20273 | 31004 ft | 431 kts | 19° |
| 2026-05-06 22:15 | 34.24382 | -15.18712 | 31282 ft | 430 kts | 19° |
| 2026-05-06 22:15 | 34.27040 | -15.17172 | 31556 ft | 429 kts | 19° |
| 2026-05-06 22:16 | 34.29728 | -15.15617 | 31842 ft | 427 kts | 19° |
| 2026-05-06 22:16 | 34.32406 | -15.14072 | 32058 ft | 427 kts | 19° |
| 2026-05-06 22:16 | 34.37769 | -15.10981 | 32114 ft | 426 kts | 19° |
| 2026-05-06 22:17 | 34.43118 | -15.07878 | 32111 ft | 426 kts | 19° |
| 2026-05-06 22:17 | 34.48430 | -15.04796 | 32111 ft | 426 kts | 19° |
| 2026-05-06 22:18 | 34.53774 | -15.01682 | 32111 ft | 426 kts | 19° |
| 2026-05-06 22:18 | 34.59120 | -14.98567 | 32124 ft | 426 kts | 19° |
| 2026-05-06 22:19 | 34.64469 | -14.95451 | 32121 ft | 427 kts | 19° |
| 2026-05-06 22:19 | 34.69820 | -14.92325 | 32140 ft | 427 kts | 19° |
| 2026-05-06 22:20 | 34.75124 | -14.89216 | 32133 ft | 426 kts | 19° |
| 2026-05-06 22:20 | 34.80460 | -14.86093 | 32128 ft | 425 kts | 19° |
| 2026-05-06 22:21 | 34.85791 | -14.82969 | 32140 ft | 425 kts | 18° |
| 2026-05-06 22:21 | 34.91119 | -14.79843 | 32134 ft | 425 kts | 18° |
| 2026-05-06 22:22 | 34.96406 | -14.76732 | 32127 ft | 425 kts | 18° |
| 2026-05-06 22:22 | 35.01721 | -14.73600 | 32122 ft | 425 kts | 18° |
| 2026-05-06 22:23 | 35.07040 | -14.70461 | 32121 ft | 425 kts | 19° |
| 2026-05-06 22:23 | 35.12359 | -14.67320 | 32118 ft | 425 kts | 19° |
| 2026-05-06 22:24 | 35.17642 | -14.64193 | 32114 ft | 425 kts | 19° |
| 2026-05-06 22:24 | 35.22961 | -14.61045 | 32111 ft | 425 kts | 19° |
| 2026-05-06 22:25 | 35.28280 | -14.57896 | 32109 ft | 425 kts | 19° |
| 2026-05-06 22:25 | 35.33589 | -14.54732 | 32137 ft | 424 kts | 19° |
| 2026-05-06 22:26 | 35.38875 | -14.51583 | 32139 ft | 422 kts | 18° |
| 2026-05-06 22:26 | 35.44127 | -14.48452 | 32123 ft | 422 kts | 18° |
| 2026-05-06 22:27 | 35.49415 | -14.45297 | 32114 ft | 423 kts | 18° |
| 2026-05-06 22:27 | 35.54705 | -14.42138 | 32107 ft | 423 kts | 18° |
| 2026-05-06 22:28 | 35.59995 | -14.38972 | 32112 ft | 423 kts | 18° |
| 2026-05-06 22:28 | 35.65248 | -14.35817 | 32122 ft | 423 kts | 18° |
| 2026-05-06 22:29 | 35.70539 | -14.32639 | 32120 ft | 423 kts | 18° |
| 2026-05-06 22:29 | 35.75824 | -14.29466 | 32115 ft | 423 kts | 18° |
| 2026-05-06 22:30 | 35.81114 | -14.26284 | 32113 ft | 423 kts | 18° |
| 2026-05-06 22:30 | 35.86369 | -14.23119 | 32111 ft | 423 kts | 18° |
| 2026-05-06 22:31 | 35.91652 | -14.19925 | 32117 ft | 422 kts | 18° |
| 2026-05-06 22:31 | 35.96893 | -14.16740 | 32113 ft | 419 kts | 18° |
| 2026-05-06 22:32 | 36.02129 | -14.13568 | 32105 ft | 419 kts | 18° |
| 2026-05-06 22:32 | 36.07332 | -14.10412 | 32105 ft | 419 kts | 18° |
| 2026-05-06 22:33 | 36.12565 | -14.07234 | 32098 ft | 420 kts | 18° |
| 2026-05-06 22:33 | 36.17805 | -14.04045 | 32113 ft | 420 kts | 18° |
| 2026-05-06 22:34 | 36.23046 | -14.00860 | 32110 ft | 420 kts | 18° |
| 2026-05-06 22:34 | 36.28250 | -13.97687 | 32096 ft | 420 kts | 18° |
| 2026-05-06 22:35 | 36.33486 | -13.94482 | 32097 ft | 420 kts | 18° |
| 2026-05-06 22:35 | 36.38720 | -13.91262 | 32095 ft | 420 kts | 18° |
| 2026-05-06 22:36 | 36.43954 | -13.88057 | 32112 ft | 420 kts | 18° |
| 2026-05-06 22:36 | 36.49195 | -13.84852 | 32127 ft | 419 kts | 18° |
| 2026-05-06 22:37 | 36.54367 | -13.81670 | 32100 ft | 417 kts | 18° |
| 2026-05-06 22:37 | 36.59561 | -13.78461 | 32093 ft | 417 kts | 18° |
| 2026-05-06 22:38 | 36.64756 | -13.75254 | 32089 ft | 417 kts | 18° |
| 2026-05-06 22:38 | 36.69954 | -13.72051 | 32105 ft | 417 kts | 18° |
| 2026-05-06 22:39 | 36.75144 | -13.68838 | 32099 ft | 417 kts | 18° |
| 2026-05-06 22:39 | 36.80199 | -13.65288 | 32094 ft | 422 kts | 23° |
| 2026-05-06 22:40 | 36.85204 | -13.61441 | 32089 ft | 423 kts | 23° |
| 2026-05-06 22:40 | 36.90209 | -13.57587 | 32087 ft | 423 kts | 23° |
| 2026-05-06 22:41 | 36.97682 | -13.51819 | 32105 ft | 423 kts | 23° |
| 2026-05-06 22:42 | 37.02682 | -13.47953 | 32097 ft | 422 kts | 22° |
| 2026-05-06 22:42 | 37.07660 | -13.44101 | 32089 ft | 421 kts | 22° |
| 2026-05-06 22:43 | 37.12639 | -13.40246 | 32083 ft | 421 kts | 22° |
| 2026-05-06 22:43 | 37.17586 | -13.36416 | 32081 ft | 421 kts | 22° |
| 2026-05-06 22:44 | 37.22563 | -13.32545 | 32105 ft | 421 kts | 22° |
| 2026-05-06 22:44 | 37.27535 | -13.28672 | 32095 ft | 421 kts | 22° |
| 2026-05-06 22:45 | 37.32513 | -13.24793 | 32091 ft | 421 kts | 22° |
| 2026-05-06 22:45 | 37.37489 | -13.20911 | 32084 ft | 421 kts | 22° |
| 2026-05-06 22:46 | 37.42429 | -13.17041 | 32074 ft | 421 kts | 22° |
| 2026-05-06 22:46 | 37.47400 | -13.13136 | 32121 ft | 421 kts | 22° |
| 2026-05-06 22:47 | 37.52377 | -13.09227 | 32079 ft | 421 kts | 22° |
| 2026-05-06 22:47 | 37.57353 | -13.05322 | 32067 ft | 422 kts | 22° |
| 2026-05-06 22:48 | 37.62304 | -13.01433 | 32061 ft | 422 kts | 22° |
| 2026-05-06 22:48 | 37.67289 | -12.97504 | 32060 ft | 423 kts | 22° |
| 2026-05-06 22:49 | 37.72273 | -12.93560 | 32062 ft | 423 kts | 22° |
| 2026-05-06 22:49 | 37.77254 | -12.89617 | 32057 ft | 423 kts | 22° |
| 2026-05-06 22:50 | 37.82243 | -12.85670 | 32061 ft | 423 kts | 22° |
| 2026-05-06 22:50 | 37.87197 | -12.81741 | 32061 ft | 423 kts | 22° |
| 2026-05-06 22:51 | 37.92183 | -12.77780 | 32060 ft | 423 kts | 22° |
| 2026-05-06 22:51 | 37.97171 | -12.73806 | 32097 ft | 424 kts | 23° |
| 2026-05-06 22:52 | 38.02141 | -12.69851 | 32068 ft | 425 kts | 22° |
| 2026-05-06 22:52 | 38.07149 | -12.65858 | 32064 ft | 425 kts | 23° |
| 2026-05-06 22:53 | 38.12150 | -12.61853 | 32055 ft | 426 kts | 23° |
| 2026-05-06 22:53 | 38.17155 | -12.57827 | 32056 ft | 426 kts | 23° |
| 2026-05-06 22:54 | 38.22166 | -12.53811 | 32084 ft | 426 kts | 23° |
| 2026-05-06 22:54 | 38.27144 | -12.49817 | 32077 ft | 426 kts | 23° |
| 2026-05-06 22:55 | 38.32151 | -12.45788 | 32062 ft | 426 kts | 23° |
| 2026-05-06 22:55 | 38.37152 | -12.41742 | 32059 ft | 426 kts | 23° |
| 2026-05-06 22:56 | 38.42155 | -12.37698 | 32067 ft | 427 kts | 24° |
| 2026-05-06 22:56 | 38.47136 | -12.33668 | 32082 ft | 427 kts | 24° |
| 2026-05-06 22:57 | 38.52153 | -12.29608 | 32068 ft | 427 kts | 24° |
| 2026-05-06 22:57 | 38.57164 | -12.25539 | 32061 ft | 427 kts | 24° |
| 2026-05-06 22:58 | 38.62167 | -12.21465 | 32053 ft | 427 kts | 24° |
| 2026-05-06 22:58 | 38.67140 | -12.17414 | 32049 ft | 426 kts | 24° |
| 2026-05-06 22:59 | 38.72145 | -12.13333 | 32068 ft | 426 kts | 24° |
| 2026-05-06 22:59 | 38.77145 | -12.09240 | 32063 ft | 426 kts | 24° |
| 2026-05-06 23:00 | 38.82144 | -12.05146 | 32055 ft | 426 kts | 24° |
| 2026-05-06 23:00 | 38.87108 | -12.01079 | 32074 ft | 426 kts | 24° |
| 2026-05-06 23:01 | 38.92103 | -11.96981 | 32065 ft | 426 kts | 25° |
| 2026-05-06 23:01 | 38.97087 | -11.92870 | 32075 ft | 426 kts | 25° |
| 2026-05-06 23:02 | 39.01238 | -11.89453 | 32052 ft | 426 kts | 25° |
| 2026-05-06 23:02 | 39.06231 | -11.85340 | 32043 ft | 426 kts | 25° |
| 2026-05-06 23:03 | 39.12026 | -11.80539 | 32041 ft | 426 kts | 25° |
| 2026-05-06 23:03 | 39.16200 | -11.77075 | 32038 ft | 426 kts | 25° |
| 2026-05-06 23:04 | 39.21155 | -11.72969 | 32034 ft | 426 kts | 25° |
| 2026-05-06 23:04 | 39.26145 | -11.68835 | 32045 ft | 426 kts | 25° |
| 2026-05-06 23:05 | 39.31932 | -11.64012 | 32041 ft | 426 kts | 25° |
| 2026-05-06 23:05 | 39.36069 | -11.60549 | 32039 ft | 426 kts | 25° |
| 2026-05-06 23:06 | 39.41039 | -11.56391 | 32034 ft | 426 kts | 25° |
| 2026-05-06 23:06 | 39.46014 | -11.52229 | 32052 ft | 426 kts | 26° |
| 2026-05-06 23:07 | 39.50989 | -11.48058 | 32037 ft | 426 kts | 26° |
| 2026-05-06 23:07 | 39.55972 | -11.43884 | 32032 ft | 426 kts | 26° |
| 2026-05-06 23:08 | 39.60911 | -11.39732 | 32029 ft | 426 kts | 26° |
| 2026-05-06 23:08 | 39.65885 | -11.35530 | 32030 ft | 427 kts | 26° |
| 2026-05-06 23:09 | 39.70858 | -11.31322 | 32062 ft | 427 kts | 27° |
| 2026-05-06 23:09 | 39.75845 | -11.27108 | 32017 ft | 428 kts | 27° |
| 2026-05-06 23:10 | 39.80845 | -11.22874 | 32003 ft | 429 kts | 27° |
| 2026-05-06 23:10 | 39.85818 | -11.18665 | 32009 ft | 430 kts | 27° |
| 2026-05-06 23:11 | 39.90831 | -11.14402 | 32011 ft | 430 kts | 27° |
| 2026-05-06 23:11 | 39.95845 | -11.10126 | 32017 ft | 431 kts | 28° |
| 2026-05-06 23:12 | 40.00865 | -11.05838 | 32016 ft | 432 kts | 28° |
| 2026-05-06 23:12 | 40.05857 | -11.01567 | 32007 ft | 432 kts | 28° |
| 2026-05-06 23:13 | 40.10883 | -10.97255 | 32009 ft | 432 kts | 28° |
| 2026-05-06 23:13 | 40.15908 | -10.92939 | 32027 ft | 433 kts | 29° |
| 2026-05-06 23:14 | 40.20961 | -10.88610 | 31998 ft | 435 kts | 29° |
| 2026-05-06 23:14 | 40.25997 | -10.84271 | 31993 ft | 437 kts | 29° |
| 2026-05-06 23:15 | 40.31080 | -10.79877 | 31996 ft | 438 kts | 29° |
| 2026-05-06 23:15 | 40.36170 | -10.75483 | 31998 ft | 439 kts | 29° |
| 2026-05-06 23:16 | 40.41269 | -10.71072 | 32002 ft | 439 kts | 30° |
| 2026-05-06 23:16 | 40.46336 | -10.66673 | 32006 ft | 440 kts | 30° |
| 2026-05-06 23:17 | 40.51447 | -10.62242 | 32002 ft | 440 kts | 30° |
| 2026-05-06 23:17 | 40.56556 | -10.57793 | 32002 ft | 441 kts | 30° |
| 2026-05-06 23:18 | 40.61667 | -10.53330 | 31992 ft | 442 kts | 31° |
| 2026-05-06 23:18 | 40.66775 | -10.48868 | 31991 ft | 444 kts | 31° |
| 2026-05-06 23:19 | 40.71931 | -10.44361 | 31988 ft | 445 kts | 31° |
| 2026-05-06 23:19 | 40.77085 | -10.39835 | 31986 ft | 446 kts | 31° |
| 2026-05-06 23:20 | 40.82248 | -10.35293 | 31995 ft | 446 kts | 31° |
| 2026-05-06 23:20 | 40.87377 | -10.30769 | 31997 ft | 446 kts | 31° |
| 2026-05-06 23:21 | 40.92538 | -10.26203 | 31994 ft | 446 kts | 31° |
| 2026-05-06 23:21 | 40.97703 | -10.21640 | 31995 ft | 446 kts | 31° |
| 2026-05-06 23:22 | 41.02873 | -10.17069 | 31981 ft | 447 kts | 32° |
| 2026-05-06 23:22 | 41.08051 | -10.12479 | 31976 ft | 449 kts | 31° |
| 2026-05-06 23:23 | 41.13214 | -10.07889 | 31980 ft | 450 kts | 32° |
| 2026-05-06 23:23 | 41.18416 | -10.03255 | 31984 ft | 450 kts | 32° |
| 2026-05-06 23:24 | 41.23617 | -9.98609 | 31988 ft | 450 kts | 32° |
| 2026-05-06 23:24 | 41.28819 | -9.93958 | 31983 ft | 451 kts | 31° |
| 2026-05-06 23:25 | 41.33987 | -9.89337 | 31988 ft | 451 kts | 32° |
| 2026-05-06 23:25 | 41.39181 | -9.84670 | 31990 ft | 451 kts | 31° |
| 2026-05-06 23:26 | 41.44382 | -9.79989 | 31964 ft | 452 kts | 33° |
| 2026-05-06 23:26 | 41.49602 | -9.75287 | 31964 ft | 453 kts | 33° |
| 2026-05-06 23:27 | 41.54797 | -9.70597 | 31968 ft | 454 kts | 33° |
| 2026-05-06 23:27 | 41.60025 | -9.65869 | 31970 ft | 454 kts | 32° |
| 2026-05-06 23:28 | 41.65262 | -9.61120 | 31975 ft | 455 kts | 33° |
| 2026-05-06 23:28 | 41.70491 | -9.56378 | 31978 ft | 454 kts | 32° |
| 2026-05-06 23:29 | 41.75723 | -9.51618 | 31973 ft | 454 kts | 33° |
| 2026-05-06 23:29 | 41.80903 | -9.46883 | 31972 ft | 454 kts | 34° |
| 2026-05-06 23:30 | 41.86131 | -9.42099 | 31958 ft | 456 kts | 34° |
| 2026-05-06 23:30 | 41.91380 | -9.37293 | 31951 ft | 457 kts | 35° |
| 2026-05-06 23:31 | 41.96231 | -9.31759 | 31963 ft | 458 kts | 42° |
| 2026-05-06 23:31 | 42.00936 | -9.26047 | 31969 ft | 459 kts | 42° |
| 2026-05-06 23:32 | 42.05678 | -9.20297 | 31970 ft | 459 kts | 42° |
| 2026-05-06 23:32 | 42.10421 | -9.14531 | 31975 ft | 459 kts | 42° |
| 2026-05-06 23:33 | 42.15158 | -9.08752 | 31970 ft | 459 kts | 43° |
| 2026-05-06 23:33 | 42.19859 | -9.03003 | 31978 ft | 459 kts | 43° |
| 2026-05-06 23:34 | 42.24579 | -8.97198 | 31980 ft | 459 kts | 43° |
| 2026-05-06 23:34 | 42.29292 | -8.91394 | 31980 ft | 458 kts | 43° |
| 2026-05-06 23:35 | 42.34004 | -8.85597 | 31980 ft | 458 kts | 43° |
| 2026-05-06 23:35 | 42.38711 | -8.79797 | 31978 ft | 458 kts | 43° |
| 2026-05-06 23:36 | 42.43375 | -8.74033 | 31979 ft | 458 kts | 43° |
| 2026-05-06 23:36 | 42.48075 | -8.68214 | 31965 ft | 458 kts | 43° |
| 2026-05-06 23:37 | 42.52772 | -8.62377 | 31969 ft | 459 kts | 43° |
| 2026-05-06 23:37 | 42.57474 | -8.56519 | 31975 ft | 459 kts | 43° |
| 2026-05-06 23:38 | 42.62149 | -8.50692 | 31982 ft | 460 kts | 43° |
| 2026-05-06 23:38 | 42.66861 | -8.44813 | 31991 ft | 460 kts | 43° |
| 2026-05-06 23:39 | 42.71569 | -8.38922 | 31997 ft | 460 kts | 43° |
| 2026-05-06 23:39 | 42.76266 | -8.33016 | 31995 ft | 460 kts | 43° |
| 2026-05-06 23:40 | 42.80966 | -8.27103 | 31990 ft | 460 kts | 44° |
| 2026-05-06 23:40 | 42.85632 | -8.21224 | 31989 ft | 460 kts | 44° |
| 2026-05-06 23:41 | 42.90329 | -8.15287 | 31989 ft | 460 kts | 44° |
| 2026-05-06 23:41 | 42.95024 | -8.09343 | 31991 ft | 461 kts | 44° |
| 2026-05-06 23:42 | 42.99721 | -8.03387 | 31997 ft | 461 kts | 44° |
| 2026-05-06 23:42 | 43.04382 | -7.97463 | 32001 ft | 461 kts | 44° |
| 2026-05-06 23:43 | 43.09075 | -7.91490 | 32003 ft | 461 kts | 44° |
| 2026-05-06 23:43 | 43.13765 | -7.85508 | 32004 ft | 461 kts | 44° |
| 2026-05-06 23:44 | 43.18445 | -7.79509 | 32011 ft | 461 kts | 44° |
| 2026-05-06 23:44 | 43.23122 | -7.73498 | 32012 ft | 461 kts | 44° |
| 2026-05-06 23:45 | 43.27760 | -7.67535 | 32009 ft | 460 kts | 44° |
| 2026-05-06 23:45 | 43.32428 | -7.61517 | 32008 ft | 460 kts | 44° |
| 2026-05-06 23:46 | 43.37098 | -7.55486 | 31998 ft | 461 kts | 44° |
| 2026-05-06 23:46 | 43.41765 | -7.49451 | 32001 ft | 461 kts | 44° |
| 2026-05-06 23:47 | 43.46405 | -7.43446 | 32001 ft | 461 kts | 44° |
| 2026-05-06 23:47 | 43.51067 | -7.37387 | 32001 ft | 461 kts | 44° |
| 2026-05-06 23:48 | 43.55726 | -7.31311 | 32003 ft | 461 kts | 44° |
| 2026-05-06 23:48 | 43.60377 | -7.25231 | 32005 ft | 461 kts | 44° |
| 2026-05-06 23:49 | 43.64999 | -7.19181 | 32000 ft | 461 kts | 44° |
| 2026-05-06 23:49 | 43.69645 | -7.13084 | 31999 ft | 461 kts | 44° |
| 2026-05-06 23:50 | 43.74289 | -7.06978 | 31999 ft | 461 kts | 44° |
| 2026-05-06 23:50 | 43.81251 | -6.97805 | 32000 ft | 461 kts | 44° |
| 2026-05-06 23:51 | 43.85851 | -6.91723 | 32002 ft | 461 kts | 44° |
| 2026-05-06 23:51 | 43.90485 | -6.85583 | 32003 ft | 461 kts | 44° |
| 2026-05-06 23:52 | 43.95116 | -6.79438 | 31996 ft | 461 kts | 44° |
| 2026-05-06 23:52 | 43.99743 | -6.73275 | 31997 ft | 461 kts | 44° |
| 2026-05-06 23:53 | 44.04339 | -6.67141 | 32005 ft | 461 kts | 44° |
| 2026-05-06 23:53 | 44.08969 | -6.60956 | 32006 ft | 462 kts | 44° |
| 2026-05-06 23:54 | 44.13598 | -6.54759 | 32010 ft | 462 kts | 44° |
| 2026-05-06 23:54 | 44.18219 | -6.48546 | 32011 ft | 462 kts | 44° |
| 2026-05-06 23:55 | 44.22831 | -6.42336 | 32007 ft | 461 kts | 44° |
| 2026-05-06 23:55 | 44.27416 | -6.36152 | 32012 ft | 461 kts | 44° |
| 2026-05-06 23:56 | 44.32022 | -6.29920 | 32013 ft | 461 kts | 44° |
| 2026-05-06 23:56 | 44.36625 | -6.23675 | 32013 ft | 461 kts | 44° |
| 2026-05-06 23:57 | 44.41224 | -6.17428 | 32014 ft | 461 kts | 44° |
| 2026-05-06 23:57 | 44.45790 | -6.11218 | 32022 ft | 461 kts | 44° |
| 2026-05-06 23:58 | 44.50380 | -6.04956 | 32016 ft | 461 kts | 44° |
| 2026-05-06 23:58 | 44.54965 | -5.98679 | 32016 ft | 461 kts | 44° |
| 2026-05-06 23:59 | 44.59549 | -5.92389 | 32017 ft | 461 kts | 44° |
| 2026-05-06 23:59 | 44.64130 | -5.86084 | 32021 ft | 461 kts | 44° |
| 2026-05-07 00:00 | 44.68685 | -5.79832 | 32025 ft | 461 kts | 44° |
| 2026-05-07 00:00 | 44.73291 | -5.73541 | 32030 ft | 462 kts | 44° |
| 2026-05-07 00:01 | 44.77893 | -5.67236 | 32027 ft | 462 kts | 44° |
| 2026-05-07 00:01 | 44.82489 | -5.60912 | 32026 ft | 462 kts | 44° |
| 2026-05-07 00:02 | 44.87054 | -5.54628 | 32034 ft | 462 kts | 44° |
| 2026-05-07 00:02 | 44.91647 | -5.48299 | 32041 ft | 461 kts | 44° |
| 2026-05-07 00:03 | 44.96228 | -5.41971 | 32044 ft | 461 kts | 44° |
| 2026-05-07 00:03 | 45.00800 | -5.35621 | 32042 ft | 461 kts | 44° |
| 2026-05-07 00:04 | 45.05333 | -5.29306 | 32034 ft | 461 kts | 44° |
| 2026-05-07 00:04 | 45.09900 | -5.22940 | 32039 ft | 461 kts | 44° |
| 2026-05-07 00:05 | 45.14465 | -5.16569 | 32042 ft | 460 kts | 44° |
| 2026-05-07 00:05 | 45.19019 | -5.10192 | 32040 ft | 460 kts | 44° |
| 2026-05-07 00:06 | 45.23534 | -5.03856 | 32038 ft | 460 kts | 44° |
| 2026-05-07 00:06 | 45.28079 | -4.97460 | 32042 ft | 460 kts | 44° |
| 2026-05-07 00:07 | 45.32623 | -4.91046 | 32045 ft | 460 kts | 44° |
| 2026-05-07 00:07 | 45.37148 | -4.84642 | 32042 ft | 459 kts | 44° |
| 2026-05-07 00:08 | 45.41638 | -4.78266 | 32041 ft | 459 kts | 44° |
| 2026-05-07 00:08 | 45.46156 | -4.71845 | 32038 ft | 459 kts | 44° |
| 2026-05-07 00:09 | 45.50672 | -4.65414 | 32038 ft | 459 kts | 44° |
| 2026-05-07 00:09 | 45.55186 | -4.58975 | 32038 ft | 459 kts | 44° |
| 2026-05-07 00:10 | 45.59664 | -4.52578 | 32038 ft | 459 kts | 45° |
| 2026-05-07 00:10 | 45.64165 | -4.46114 | 32038 ft | 459 kts | 45° |
| 2026-05-07 00:11 | 45.68666 | -4.39638 | 32038 ft | 459 kts | 45° |
| 2026-05-07 00:11 | 45.73164 | -4.33155 | 32045 ft | 459 kts | 45° |
| 2026-05-07 00:12 | 45.77622 | -4.26704 | 32044 ft | 459 kts | 45° |
| 2026-05-07 00:12 | 45.82106 | -4.20203 | 32040 ft | 458 kts | 45° |
| 2026-05-07 00:13 | 45.86589 | -4.13697 | 32039 ft | 458 kts | 45° |
| 2026-05-07 00:13 | 45.91066 | -4.07181 | 32045 ft | 458 kts | 45° |
| 2026-05-07 00:14 | 45.95504 | -4.00714 | 32045 ft | 458 kts | 45° |
| 2026-05-07 00:14 | 45.99967 | -3.94192 | 32045 ft | 457 kts | 45° |
| 2026-05-07 00:15 | 46.04417 | -3.87647 | 32034 ft | 457 kts | 45° |
| 2026-05-07 00:15 | 46.08866 | -3.81090 | 32031 ft | 458 kts | 45° |
| 2026-05-07 00:16 | 46.13317 | -3.74528 | 32033 ft | 458 kts | 45° |
| 2026-05-07 00:16 | 46.17731 | -3.68008 | 32034 ft | 457 kts | 45° |
| 2026-05-07 00:17 | 46.22177 | -3.61437 | 32032 ft | 457 kts | 45° |
| 2026-05-07 00:17 | 46.26616 | -3.54853 | 32031 ft | 457 kts | 45° |
| 2026-05-07 00:18 | 46.31049 | -3.48251 | 32027 ft | 457 kts | 45° |
| 2026-05-07 00:18 | 46.35451 | -3.41688 | 32040 ft | 457 kts | 45° |
| 2026-05-07 00:19 | 46.39870 | -3.35084 | 32035 ft | 457 kts | 45° |
| 2026-05-07 00:19 | 46.44283 | -3.28460 | 32028 ft | 456 kts | 45° |
| 2026-05-07 00:20 | 46.48693 | -3.21835 | 32027 ft | 456 kts | 45° |
| 2026-05-07 00:20 | 46.53091 | -3.15188 | 32033 ft | 456 kts | 45° |
| 2026-05-07 00:21 | 46.57260 | -3.08328 | 32033 ft | 457 kts | 55° |
| 2026-05-07 00:21 | 46.60521 | -3.00403 | 32031 ft | 457 kts | 59° |
| 2026-05-07 00:22 | 46.63731 | -2.92428 | 32031 ft | 457 kts | 59° |
| 2026-05-07 00:22 | 46.66927 | -2.84451 | 32028 ft | 457 kts | 59° |
| 2026-05-07 00:23 | 46.70120 | -2.76454 | 32021 ft | 457 kts | 59° |
| 2026-05-07 00:23 | 46.73288 | -2.68500 | 32018 ft | 457 kts | 59° |
| 2026-05-07 00:24 | 46.76470 | -2.60479 | 32018 ft | 457 kts | 59° |
| 2026-05-07 00:24 | 46.79647 | -2.52448 | 32011 ft | 457 kts | 59° |
| 2026-05-07 00:25 | 46.82814 | -2.44404 | 32012 ft | 457 kts | 59° |
| 2026-05-07 00:25 | 46.85970 | -2.36355 | 32009 ft | 457 kts | 59° |
| 2026-05-07 00:26 | 46.89216 | -2.28439 | 32005 ft | 457 kts | 57° |
| 2026-05-07 00:26 | 46.92602 | -2.20572 | 32006 ft | 457 kts | 57° |
| 2026-05-07 00:27 | 46.95984 | -2.12672 | 32188 ft | 460 kts | 57° |
| 2026-05-07 00:27 | 46.97660 | -2.08692 | 32494 ft | 459 kts | 57° |
| 2026-05-07 00:27 | 46.99325 | -2.04699 | 32832 ft | 459 kts | 57° |
| 2026-05-07 00:28 | 47.00982 | -2.00710 | 33166 ft | 458 kts | 58° |
| 2026-05-07 00:28 | 47.02574 | -1.96757 | 33483 ft | 457 kts | 59° |
| 2026-05-07 00:28 | 47.04147 | -1.92708 | 33802 ft | 457 kts | 59° |
| 2026-05-07 00:28 | 47.05692 | -1.88637 | 33985 ft | 457 kts | 60° |
| 2026-05-07 00:29 | 47.08762 | -1.80485 | 34003 ft | 456 kts | 60° |
| 2026-05-07 00:30 | 47.14938 | -1.64297 | 34004 ft | 456 kts | 59° |
| 2026-05-07 00:30 | 47.18146 | -1.56286 | 34002 ft | 455 kts | 56° |
| 2026-05-07 00:31 | 47.21663 | -1.48574 | 34001 ft | 454 kts | 54° |
| 2026-05-07 00:31 | 47.25238 | -1.40920 | 33999 ft | 454 kts | 54° |
| 2026-05-07 00:32 | 47.28716 | -1.33232 | 34003 ft | 454 kts | 55° |
| 2026-05-07 00:32 | 47.32161 | -1.25430 | 34006 ft | 454 kts | 56° |
| 2026-05-07 00:33 | 47.35604 | -1.17620 | 34010 ft | 454 kts | 55° |
| 2026-05-07 00:33 | 47.39056 | -1.09819 | 34029 ft | 454 kts | 55° |
| 2026-05-07 00:34 | 47.42505 | -1.02030 | 34027 ft | 453 kts | 55° |
| 2026-05-07 00:34 | 47.45926 | -0.94277 | 34023 ft | 453 kts | 56° |
| 2026-05-07 00:35 | 47.49357 | -0.86459 | 34024 ft | 453 kts | 56° |
| 2026-05-07 00:35 | 47.52780 | -0.78631 | 34033 ft | 453 kts | 56° |
| 2026-05-07 00:36 | 47.56177 | -0.70852 | 34036 ft | 453 kts | 56° |
| 2026-05-07 00:36 | 47.59581 | -0.63018 | 34046 ft | 453 kts | 56° |
| 2026-05-07 00:37 | 47.62982 | -0.55167 | 34044 ft | 452 kts | 56° |
| 2026-05-07 00:37 | 47.66384 | -0.47314 | 34042 ft | 452 kts | 56° |
| 2026-05-07 00:38 | 47.69783 | -0.39457 | 34040 ft | 452 kts | 56° |
| 2026-05-07 00:38 | 47.73148 | -0.31637 | 34040 ft | 452 kts | 56° |
| 2026-05-07 00:39 | 47.76524 | -0.23749 | 34037 ft | 452 kts | 56° |
| 2026-05-07 00:39 | 47.79902 | -0.15857 | 34038 ft | 452 kts | 56° |
| 2026-05-07 00:40 | 47.83276 | -0.07971 | 34048 ft | 452 kts | 56° |
| 2026-05-07 00:40 | 47.86642 | -0.00066 | 34059 ft | 452 kts | 56° |
| 2026-05-07 00:41 | 47.89973 | 0.07800 | 34043 ft | 452 kts | 56° |
| 2026-05-07 00:41 | 47.93317 | 0.15723 | 34042 ft | 451 kts | 56° |
| 2026-05-07 00:42 | 47.96656 | 0.23640 | 34045 ft | 451 kts | 56° |
| 2026-05-07 00:42 | 47.99991 | 0.31575 | 34041 ft | 451 kts | 56° |
| 2026-05-07 00:43 | 48.03300 | 0.39465 | 34032 ft | 451 kts | 56° |
| 2026-05-07 00:43 | 48.06621 | 0.47422 | 34057 ft | 451 kts | 56° |
| 2026-05-07 00:44 | 48.09937 | 0.55373 | 34043 ft | 450 kts | 56° |
| 2026-05-07 00:44 | 48.13401 | 0.63076 | 34063 ft | 448 kts | 51° |
| 2026-05-07 00:45 | 48.17194 | 0.70474 | 34053 ft | 448 kts | 51° |
| 2026-05-07 00:45 | 48.20976 | 0.77901 | 34049 ft | 448 kts | 51° |
| 2026-05-07 00:46 | 48.24742 | 0.85352 | 34057 ft | 448 kts | 51° |
| 2026-05-07 00:46 | 48.28505 | 0.92806 | 34060 ft | 448 kts | 51° |
| 2026-05-07 00:47 | 48.32239 | 1.00205 | 34058 ft | 447 kts | 51° |
| 2026-05-07 00:47 | 48.35986 | 1.07644 | 34059 ft | 447 kts | 51° |
| 2026-05-07 00:48 | 48.39726 | 1.15103 | 34058 ft | 446 kts | 51° |
| 2026-05-07 00:48 | 48.43461 | 1.22569 | 34046 ft | 446 kts | 51° |
| 2026-05-07 00:49 | 48.47165 | 1.30000 | 34058 ft | 446 kts | 51° |
| 2026-05-07 00:49 | 48.50885 | 1.37486 | 34056 ft | 445 kts | 51° |
| 2026-05-07 00:50 | 48.54592 | 1.44955 | 34050 ft | 445 kts | 51° |
| 2026-05-07 00:50 | 48.58296 | 1.52429 | 34047 ft | 444 kts | 51° |
| 2026-05-07 00:51 | 48.61986 | 1.59915 | 34034 ft | 444 kts | 51° |
| 2026-05-07 00:51 | 48.65136 | 1.67869 | 34032 ft | 447 kts | 66° |
| 2026-05-07 00:52 | 48.67282 | 1.76699 | 34034 ft | 447 kts | 68° |
| 2026-05-07 00:52 | 48.69429 | 1.85533 | 34036 ft | 447 kts | 68° |
| 2026-05-07 00:53 | 48.71570 | 1.94363 | 34021 ft | 447 kts | 68° |
| 2026-05-07 00:53 | 48.73677 | 2.03141 | 34018 ft | 446 kts | 68° |
| 2026-05-07 00:54 | 48.75755 | 2.11996 | 34017 ft | 447 kts | 70° |
| 2026-05-07 00:54 | 48.77496 | 2.21042 | 34022 ft | 447 kts | 73° |
| 2026-05-07 00:55 | 48.79038 | 2.30179 | 34019 ft | 447 kts | 74° |
| 2026-05-07 00:55 | 48.80583 | 2.39241 | 34017 ft | 447 kts | 73° |
| 2026-05-07 00:56 | 48.82205 | 2.48329 | 34015 ft | 446 kts | 73° |
| 2026-05-07 00:56 | 48.83838 | 2.57420 | 34014 ft | 446 kts | 73° |
| 2026-05-07 00:57 | 48.85450 | 2.66522 | 34016 ft | 446 kts | 73° |
| 2026-05-07 00:57 | 48.87048 | 2.75641 | 34009 ft | 447 kts | 73° |
| 2026-05-07 00:58 | 48.88634 | 2.84703 | 34007 ft | 447 kts | 73° |
| 2026-05-07 00:58 | 48.90222 | 2.93835 | 34006 ft | 447 kts | 74° |
| 2026-05-07 00:59 | 48.92590 | 3.07560 | 34014 ft | 447 kts | 74° |
| 2026-05-07 01:00 | 48.94144 | 3.16664 | 34006 ft | 448 kts | 74° |
| 2026-05-07 01:00 | 48.95700 | 3.25844 | 34002 ft | 449 kts | 74° |
| 2026-05-07 01:01 | 48.97256 | 3.35042 | 34008 ft | 449 kts | 74° |
| 2026-05-07 01:01 | 48.98815 | 3.44247 | 34002 ft | 449 kts | 74° |
| 2026-05-07 01:02 | 49.00365 | 3.53452 | 34012 ft | 449 kts | 75° |
| 2026-05-07 01:02 | 49.01895 | 3.62611 | 34013 ft | 449 kts | 75° |
| 2026-05-07 01:03 | 49.03427 | 3.71842 | 34006 ft | 449 kts | 75° |
| 2026-05-07 01:03 | 49.04951 | 3.81077 | 34006 ft | 449 kts | 75° |
| 2026-05-07 01:04 | 49.06468 | 3.90319 | 34011 ft | 449 kts | 75° |
| 2026-05-07 01:04 | 49.07978 | 3.99556 | 34006 ft | 449 kts | 75° |
| 2026-05-07 01:05 | 49.09469 | 4.08750 | 34003 ft | 449 kts | 75° |
| 2026-05-07 01:05 | 49.10965 | 4.18011 | 34006 ft | 449 kts | 75° |
| 2026-05-07 01:06 | 49.12455 | 4.27272 | 34004 ft | 449 kts | 75° |
| 2026-05-07 01:06 | 49.14016 | 4.36507 | 34006 ft | 448 kts | 70° |
| 2026-05-07 01:07 | 49.16360 | 4.45255 | 34009 ft | 448 kts | 66° |
| 2026-05-07 01:07 | 49.18755 | 4.54046 | 34006 ft | 448 kts | 66° |
| 2026-05-07 01:08 | 49.21124 | 4.62849 | 33998 ft | 448 kts | 67° |
| 2026-05-07 01:08 | 49.23491 | 4.71679 | 33996 ft | 448 kts | 67° |
| 2026-05-07 01:09 | 49.25861 | 4.80495 | 33996 ft | 448 kts | 67° |
| 2026-05-07 01:09 | 49.28209 | 4.89274 | 33999 ft | 448 kts | 67° |
| 2026-05-07 01:10 | 49.30556 | 4.98124 | 33996 ft | 448 kts | 67° |
| 2026-05-07 01:10 | 49.32902 | 5.06969 | 33987 ft | 448 kts | 67° |
| 2026-05-07 01:11 | 49.35242 | 5.15831 | 33986 ft | 448 kts | 67° |
| 2026-05-07 01:11 | 49.37557 | 5.24644 | 33986 ft | 448 kts | 67° |
| 2026-05-07 01:12 | 49.39886 | 5.33520 | 33989 ft | 448 kts | 68° |
| 2026-05-07 01:12 | 49.42208 | 5.42408 | 33989 ft | 449 kts | 68° |
| 2026-05-07 01:13 | 49.44523 | 5.51316 | 33972 ft | 449 kts | 68° |
| 2026-05-07 01:13 | 49.46826 | 5.60232 | 33975 ft | 449 kts | 68° |
| 2026-05-07 01:14 | 49.49114 | 5.69109 | 33978 ft | 449 kts | 67° |
| 2026-05-07 01:14 | 49.52273 | 5.77344 | 33963 ft | 448 kts | 49° |
| 2026-05-07 01:15 | 49.56868 | 5.83734 | 33944 ft | 440 kts | 35° |
| 2026-05-07 01:15 | 49.61903 | 5.88929 | 33942 ft | 438 kts | 31° |
| 2026-05-07 01:16 | 49.67131 | 5.93901 | 33956 ft | 449 kts | 31° |
| 2026-05-07 01:16 | 49.72419 | 5.99055 | 33950 ft | 450 kts | 32° |
| 2026-05-07 01:17 | 49.77668 | 6.04362 | 33955 ft | 451 kts | 33° |
| 2026-05-07 01:17 | 49.82903 | 6.09691 | 33951 ft | 449 kts | 33° |
| 2026-05-07 01:18 | 49.88251 | 6.14475 | 33948 ft | 447 kts | 23° |
| 2026-05-07 01:18 | 49.93931 | 6.18423 | 33957 ft | 447 kts | 24° |
| 2026-05-07 01:19 | 49.99581 | 6.22436 | 33936 ft | 447 kts | 25° |
| 2026-05-07 01:19 | 50.05198 | 6.26581 | 33923 ft | 446 kts | 25° |
| 2026-05-07 01:20 | 50.10802 | 6.30739 | 33933 ft | 446 kts | 25° |
| 2026-05-07 01:20 | 50.16454 | 6.34904 | 33515 ft | 448 kts | 24° |
| 2026-05-07 01:20 | 50.19227 | 6.36944 | 32421 ft | 457 kts | 25° |
| 2026-05-07 01:21 | 50.22104 | 6.39058 | 31556 ft | 460 kts | 24° |
| 2026-05-07 01:21 | 50.25008 | 6.41193 | 30669 ft | 463 kts | 24° |
| 2026-05-07 01:21 | 50.27912 | 6.43445 | 29554 ft | 470 kts | 30° |
| 2026-05-07 01:21 | 50.30512 | 6.46566 | 28507 ft | 474 kts | 44° |
| 2026-05-07 01:22 | 50.32593 | 6.50553 | 27706 ft | 472 kts | 57° |
| 2026-05-07 01:22 | 50.34050 | 6.55035 | 27095 ft | 467 kts | 69° |
| 2026-05-07 01:22 | 50.34871 | 6.59924 | 26379 ft | 465 kts | 82° |
| 2026-05-07 01:22 | 50.34969 | 6.64960 | 25677 ft | 461 kts | 95° |
| 2026-05-07 01:23 | 50.34655 | 6.69943 | 24999 ft | 458 kts | 96° |
| 2026-05-07 01:23 | 50.34328 | 6.74888 | 24330 ft | 456 kts | 96° |
| 2026-05-07 01:23 | 50.34005 | 6.79808 | 23707 ft | 452 kts | 96° |
| 2026-05-07 01:23 | 50.33564 | 6.84660 | 23032 ft | 448 kts | 103° |
| 2026-05-07 01:24 | 50.32653 | 6.89280 | 22465 ft | 441 kts | 112° |
| 2026-05-07 01:24 | 50.31397 | 6.93618 | 21888 ft | 435 kts | 116° |
| 2026-05-07 01:24 | 50.30145 | 6.97819 | 21369 ft | 429 kts | 116° |
| 2026-05-07 01:24 | 50.28893 | 7.02008 | 20844 ft | 423 kts | 116° |
| 2026-05-07 01:25 | 50.27660 | 7.06138 | 20352 ft | 416 kts | 115° |
| 2026-05-07 01:25 | 50.26446 | 7.10214 | 19869 ft | 411 kts | 115° |
| 2026-05-07 01:25 | 50.25247 | 7.14233 | 19402 ft | 405 kts | 116° |
| 2026-05-07 01:25 | 50.24063 | 7.18190 | 18950 ft | 399 kts | 115° |
| 2026-05-07 01:26 | 50.22893 | 7.22095 | 18502 ft | 395 kts | 115° |
| 2026-05-07 01:26 | 50.21731 | 7.25951 | 18032 ft | 390 kts | 116° |
| 2026-05-07 01:26 | 50.20580 | 7.29760 | 17576 ft | 385 kts | 115° |
| 2026-05-07 01:26 | 50.19457 | 7.33519 | 17155 ft | 380 kts | 114° |
| 2026-05-07 01:27 | 50.18459 | 7.37252 | 16720 ft | 375 kts | 111° |
| 2026-05-07 01:27 | 50.17546 | 7.41043 | 16281 ft | 372 kts | 109° |
| 2026-05-07 01:27 | 50.16682 | 7.44835 | 15832 ft | 370 kts | 109° |
| 2026-05-07 01:27 | 50.15830 | 7.48607 | 15383 ft | 367 kts | 109° |
| 2026-05-07 01:28 | 50.14975 | 7.52341 | 14941 ft | 364 kts | 109° |
| 2026-05-07 01:28 | 50.14109 | 7.56043 | 14481 ft | 362 kts | 109° |
| 2026-05-07 01:28 | 50.13233 | 7.59715 | 14030 ft | 360 kts | 110° |
| 2026-05-07 01:28 | 50.12355 | 7.63358 | 13548 ft | 359 kts | 109° |
| 2026-05-07 01:29 | 50.11457 | 7.66973 | 13059 ft | 356 kts | 113° |
| 2026-05-07 01:29 | 50.10282 | 7.70299 | 12702 ft | 358 kts | 124° |
| 2026-05-07 01:29 | 50.08823 | 7.73546 | 12509 ft | 371 kts | 124° |
| 2026-05-07 01:29 | 50.07348 | 7.76849 | 12244 ft | 372 kts | 124° |
| 2026-05-07 01:30 | 50.05880 | 7.80157 | 11994 ft | 372 kts | 124° |
| 2026-05-07 01:30 | 50.04415 | 7.83467 | 11742 ft | 371 kts | 124° |
| 2026-05-07 01:30 | 50.02952 | 7.86769 | 11484 ft | 370 kts | 124° |
| 2026-05-07 01:30 | 50.01633 | 7.90197 | 11225 ft | 369 kts | 114° |
| 2026-05-07 01:31 | 50.00858 | 7.93947 | 10995 ft | 363 kts | 99° |
| 2026-05-07 01:31 | 50.00663 | 7.97825 | 10879 ft | 359 kts | 86° |
| 2026-05-07 01:31 | 50.01019 | 8.01600 | 10908 ft | 357 kts | 73° |
| 2026-05-07 01:31 | 50.01839 | 8.05233 | 10905 ft | 356 kts | 67° |
| 2026-05-07 01:32 | 50.02722 | 8.08834 | 10904 ft | 356 kts | 67° |
| 2026-05-07 01:32 | 50.03603 | 8.12437 | 10904 ft | 356 kts | 68° |
| 2026-05-07 01:32 | 50.04482 | 8.16047 | 10907 ft | 356 kts | 68° |
| 2026-05-07 01:32 | 50.05356 | 8.19655 | 10906 ft | 356 kts | 68° |
| 2026-05-07 01:33 | 50.06228 | 8.23262 | 10904 ft | 356 kts | 68° |
| 2026-05-07 01:33 | 50.07092 | 8.26839 | 10907 ft | 359 kts | 69° |
| 2026-05-07 01:33 | 50.07969 | 8.30476 | 10902 ft | 355 kts | 69° |
| 2026-05-07 01:33 | 50.08818 | 8.33999 | 10811 ft | 341 kts | 68° |
| 2026-05-07 01:34 | 50.09638 | 8.37393 | 10686 ft | 329 kts | 68° |
| 2026-05-07 01:34 | 50.10428 | 8.40664 | 10561 ft | 317 kts | 68° |
| 2026-05-07 01:34 | 50.11191 | 8.43829 | 10445 ft | 307 kts | 68° |
| 2026-05-07 01:34 | 50.11928 | 8.46904 | 10221 ft | 301 kts | 68° |
| 2026-05-07 01:35 | 50.12653 | 8.49942 | 9909 ft | 298 kts | 68° |
| 2026-05-07 01:35 | 50.13129 | 8.51941 | 9677 ft | 297 kts | 68° |
| 2026-05-07 01:35 | 50.14087 | 8.55958 | 9192 ft | 295 kts | 69° |
| 2026-05-07 01:35 | 50.14789 | 8.58907 | 8822 ft | 293 kts | 69° |
| 2026-05-07 01:36 | 50.15493 | 8.61867 | 8319 ft | 290 kts | 69° |
| 2026-05-07 01:36 | 50.16187 | 8.64796 | 7783 ft | 287 kts | 69° |
| 2026-05-07 01:36 | 50.16880 | 8.67710 | 7256 ft | 286 kts | 69° |
| 2026-05-07 01:36 | 50.17339 | 8.69631 | 6922 ft | 284 kts | 69° |
| 2026-05-07 01:37 | 50.18028 | 8.72494 | 6437 ft | 281 kts | 69° |
| 2026-05-07 01:37 | 50.18715 | 8.75347 | 5899 ft | 282 kts | 69° |
| 2026-05-07 01:37 | 50.19395 | 8.78200 | 5616 ft | 278 kts | 69° |
| 2026-05-07 01:37 | 50.20057 | 8.81005 | 5354 ft | 273 kts | 69° |
| 2026-05-07 01:38 | 50.20738 | 8.84719 | 5007 ft | 268 kts | 88° |
| 2026-05-07 01:38 | 50.20374 | 8.87490 | 4852 ft | 258 kts | 118° |
| 2026-05-07 01:38 | 50.19670 | 8.88983 | 4762 ft | 250 kts | 139° |
| 2026-05-07 01:38 | 50.18226 | 8.90276 | 4679 ft | 241 kts | 160° |
| 2026-05-07 01:39 | 50.16644 | 8.91117 | 4537 ft | 240 kts | 163° |
| 2026-05-07 01:39 | 50.15054 | 8.91896 | 4405 ft | 239 kts | 166° |
| 2026-05-07 01:39 | 50.13422 | 8.92047 | 4263 ft | 235 kts | 195° |
| 2026-05-07 01:39 | 50.11998 | 8.90919 | 4135 ft | 230 kts | 226° |
| 2026-05-07 01:40 | 50.11146 | 8.88899 | 4032 ft | 218 kts | 251° |
| 2026-05-07 01:40 | 50.10647 | 8.86776 | 3999 ft | 198 kts | 253° |
| 2026-05-07 01:40 | 50.10201 | 8.84855 | 3890 ft | 182 kts | 253° |
| 2026-05-07 01:40 | 50.09776 | 8.83042 | 3682 ft | 176 kts | 253° |
| 2026-05-07 01:41 | 50.09364 | 8.81285 | 3472 ft | 174 kts | 253° |
| 2026-05-07 01:41 | 50.08948 | 8.79522 | 3246 ft | 173 kts | 253° |
| 2026-05-07 01:41 | 50.08533 | 8.77761 | 3007 ft | 172 kts | 253° |
| 2026-05-07 01:41 | 50.08121 | 8.76017 | 2777 ft | 171 kts | 253° |
| 2026-05-07 01:42 | 50.07711 | 8.74288 | 2550 ft | 170 kts | 253° |
| 2026-05-07 01:42 | 50.07398 | 8.72628 | 2413 ft | 148 kts | 263° |
| 2026-05-07 01:42 | 50.07202 | 8.71109 | 2202 ft | 141 kts | 262° |
| 2026-05-07 01:42 | 50.06998 | 8.69626 | 1996 ft | 139 kts | 261° |
| 2026-05-07 01:43 | 50.06733 | 8.68171 | 1818 ft | 141 kts | 256° |
| 2026-05-07 01:43 | 50.06426 | 8.66751 | 1609 ft | 140 kts | 254° |
| 2026-05-07 01:43 | 50.06083 | 8.65323 | 1400 ft | 141 kts | 253° |
| 2026-05-07 01:43 | 50.05739 | 8.63865 | 1176 ft | 145 kts | 253° |
| 2026-05-07 01:44 | 50.05397 | 8.62405 | 993 ft | 143 kts | 251° |
| 2026-05-07 01:44 | 50.05048 | 8.60970 | 762 ft | 140 kts | 251° |
| 2026-05-07 01:44 | 50.04718 | 8.59545 | 557 ft | 139 kts | 251° |
| 2026-05-07 01:44 | 50.04382 | 8.58149 | 382 ft | 136 kts | 251° |
| 2026-05-07 01:45 | 50.04084 | 8.56899 | 362 ft | 103 kts | 250° |
| 2026-05-07 01:45 | 50.03908 | 8.56153 | 359 ft | 44 kts | 251° |
| 2026-05-07 01:45 | 50.03887 | 8.55856 | 350 ft | 19 kts | 275° |
| 2026-05-07 01:45 | 50.03903 | 8.55693 | 351 ft | 13 kts | 280° |
| 2026-05-07 01:46 | 50.03958 | 8.55638 | 351 ft | 10 kts | 14° |
| 2026-05-07 01:46 | 50.03994 | 8.55721 | 353 ft | 12 kts | 69° |
| 2026-05-07 01:46 | 50.04030 | 8.55874 | 357 ft | 18 kts | 69° |
| 2026-05-07 01:46 | 50.04076 | 8.56068 | 354 ft | 19 kts | 69° |
| 2026-05-07 01:47 | 50.04120 | 8.56248 | 360 ft | 17 kts | 70° |
| 2026-05-07 01:47 | 50.04161 | 8.56422 | 356 ft | 17 kts | 69° |
| 2026-05-07 01:47 | 50.04202 | 8.56594 | 361 ft | 17 kts | 69° |
| 2026-05-07 01:47 | 50.04240 | 8.56751 | 358 ft | 13 kts | 69° |
| 2026-05-07 01:48 | 50.04309 | 8.56816 | 360 ft | 12 kts | 11° |
| 2026-05-07 01:48 | 50.04397 | 8.56842 | 366 ft | 14 kts | 9° |
| 2026-05-07 01:48 | 50.04497 | 8.56871 | 359 ft | 15 kts | 13° |
| 2026-05-07 01:48 | 50.04600 | 8.56909 | 358 ft | 15 kts | 13° |
| 2026-05-07 01:49 | 50.04687 | 8.56959 | 358 ft | 12 kts | 24° |
| 2026-05-07 01:49 | 50.04756 | 8.57007 | 362 ft | 9 kts | 25° |
| 2026-05-07 01:49 | 50.04817 | 8.57051 | 360 ft | 9 kts | 25° |
| 2026-05-07 01:49 | 50.04840 | 8.57086 | 359 ft | 5 kts | 85° |
| 2026-05-07 01:50 | 50.04826 | 8.57142 | 359 ft | 6 kts | 115° |
| 2026-05-07 01:50 | 50.04815 | 8.57177 | 363 ft | 1 kts | 115° |
| 2026-05-07 01:50 | 50.04814 | 8.57183 | 362 ft | 1 kts | 115° |
| 2026-05-07 01:50 | 50.04813 | 8.57185 | 362 ft | 0 kts | 115° |